Time;durP1;ratioP1;P1;durP2;ratioP2;P2;SDS_P1;SDS_P2;PMS_P1;PMS_P2;Temp;Humidity;BMP_temperature;BMP_pressure;BME280_temperature;BME280_humidity;BME280_pressure;Samples;Min_cycle;Max_cycle;Signal;HPM_P1;HPM_P2
2021/12/13 00:02:20;;;;;;;21.00;15.33;;;12.40;99.90;;;;;;5009991;28;20200;-23
2021/12/13 00:04:56;;;;;;;19.50;15.07;;;12.40;99.90;;;;;;5011607;28;20712;-23
2021/12/13 00:07:27;;;;;;;21.03;15.83;;;12.40;99.90;;;;;;5015033;28;20584;-23
2021/12/13 00:10:03;;;;;;;19.83;15.10;;;12.40;99.90;;;;;;5017119;28;20216;-23
2021/12/13 00:12:36;;;;;;;21.63;16.33;;;12.40;99.90;;;;;;5025173;28;20578;-23
2021/12/13 00:15:13;;;;;;;20.60;16.60;;;12.40;99.90;;;;;;5013759;28;20217;-23
2021/12/13 00:17:50;;;;;;;19.37;15.67;;;12.30;99.90;;;;;;5008411;28;20575;-23
2021/12/13 00:20:28;;;;;;;20.53;16.20;;;12.30;99.90;;;;;;5021598;28;20601;-23
2021/12/13 00:23:09;;;;;;;19.87;16.13;;;12.30;99.90;;;;;;5016444;28;20724;-23
2021/12/13 00:25:40;;;;;;;20.10;16.23;;;12.40;99.90;;;;;;5021590;28;20296;-23
2021/12/13 00:28:13;;;;;;;20.60;16.03;;;12.40;99.90;;;;;;5007607;28;20217;-23
2021/12/13 00:31:08;;;;;;;19.33;15.57;;;12.30;99.90;;;;;;5018007;28;20213;-23
2021/12/13 00:34:03;;;;;;;20.13;16.27;;;12.30;99.90;;;;;;5022979;28;20570;-23
2021/12/13 00:36:54;;;;;;;19.77;16.23;;;12.40;99.90;;;;;;5025072;28;20571;-23
2021/12/13 00:39:30;;;;;;;20.63;16.20;;;12.30;99.90;;;;;;5025612;28;20212;-23
2021/12/13 00:41:58;;;;;;;20.10;16.07;;;12.30;99.90;;;;;;5026688;28;20201;-23
2021/12/13 00:44:31;;;;;;;19.47;15.30;;;12.30;99.90;;;;;;5019836;28;20198;-23
2021/12/13 00:47:04;;;;;;;19.23;15.67;;;12.30;99.90;;;;;;5019381;28;20209;-23
2021/12/13 00:49:33;;;;;;;19.23;15.13;;;12.30;99.90;;;;;;5019777;28;20233;-24
2021/12/13 00:52:02;;;;;;;20.63;15.20;;;12.30;99.90;;;;;;5024294;28;20244;-23
2021/12/13 00:54:36;;;;;;;19.90;14.93;;;12.30;99.90;;;;;;5025079;28;20279;-23
2021/12/13 00:57:03;;;;;;;19.07;15.40;;;12.30;99.90;;;;;;5009735;28;20209;-23
2021/12/13 00:59:38;;;;;;;20.10;14.83;;;12.30;99.90;;;;;;5010360;28;20224;-23
2021/12/13 01:02:08;;;;;;;18.30;14.27;;;12.30;99.90;;;;;;5021744;28;20220;-23
2021/12/13 01:04:47;;;;;;;18.30;14.73;;;12.30;99.90;;;;;;5010539;28;20217;-23
2021/12/13 01:07:39;;;;;;;19.17;14.33;;;12.30;99.90;;;;;;5011409;28;20200;-23
2021/12/13 01:10:43;;;;;;;19.90;14.87;;;12.30;99.90;;;;;;5026535;28;20216;-23
2021/12/13 01:13:31;;;;;;;18.33;13.80;;;12.30;99.90;;;;;;5014401;28;20641;-23
2021/12/13 01:15:59;;;;;;;20.13;14.77;;;12.30;99.90;;;;;;5011711;28;20211;-23
2021/12/13 01:18:58;;;;;;;18.30;13.73;;;12.30;99.90;;;;;;5017230;28;20228;-23
2021/12/13 01:21:42;;;;;;;18.07;13.70;;;12.30;99.90;;;;;;5022767;28;20200;-23
2021/12/13 01:24:19;;;;;;;17.40;14.50;;;12.30;99.90;;;;;;5023157;28;20565;-23
2021/12/13 01:26:54;;;;;;;17.63;14.63;;;12.30;99.90;;;;;;5012749;28;20205;-23
2021/12/13 01:29:25;;;;;;;18.97;14.23;;;12.30;99.90;;;;;;5022020;28;20232;-23
2021/12/13 01:32:05;;;;;;;16.83;13.47;;;12.30;99.90;;;;;;5025409;28;20216;-23
2021/12/13 01:34:36;;;;;;;18.13;14.10;;;12.30;99.90;;;;;;5021744;28;20201;-23
2021/12/13 01:37:16;;;;;;;17.97;13.97;;;12.30;99.90;;;;;;5027036;28;20608;-24
2021/12/13 01:39:51;;;;;;;16.87;13.03;;;12.30;99.90;;;;;;5028593;28;20291;-24
2021/12/13 01:42:23;;;;;;;17.77;13.80;;;12.30;99.90;;;;;;5028218;28;20200;-25
2021/12/13 01:44:54;;;;;;;18.93;13.73;;;12.20;99.90;;;;;;5026177;28;20565;-25
2021/12/13 01:47:25;;;;;;;16.73;12.37;;;12.20;99.90;;;;;;5012485;28;20217;-25
2021/12/13 01:50:02;;;;;;;16.00;12.70;;;12.20;99.90;;;;;;5025233;28;20229;-25
2021/12/13 01:52:37;;;;;;;18.20;13.13;;;12.20;99.90;;;;;;5023647;28;20259;-24
2021/12/13 01:55:33;;;;;;;16.60;12.93;;;12.20;99.90;;;;;;5026463;28;20224;-25
2021/12/13 02:01:11;;;;;;;17.47;13.23;;;12.20;99.90;;;;;;5028649;28;20316;-25
2021/12/13 02:03:57;;;;;;;15.17;12.33;;;12.20;99.90;;;;;;5024177;28;20219;-24
2021/12/13 02:06:41;;;;;;;14.17;11.90;;;12.20;99.90;;;;;;5026995;28;20609;-25
2021/12/13 02:09:33;;;;;;;16.20;11.87;;;12.20;99.90;;;;;;5012687;28;20229;-24
2021/12/13 02:12:04;;;;;;;15.47;12.10;;;12.20;99.90;;;;;;5025500;28;20655;-25
2021/12/13 02:14:36;;;;;;;14.73;11.90;;;12.20;99.90;;;;;;5028804;28;20204;-25
2021/12/13 02:17:11;;;;;;;16.33;11.93;;;12.20;99.90;;;;;;5020612;28;20205;-25
2021/12/13 02:19:50;;;;;;;16.70;12.27;;;12.20;99.90;;;;;;5013658;28;20282;-24
2021/12/13 02:22:39;;;;;;;15.83;11.60;;;12.20;99.90;;;;;;5022787;28;20209;-25
2021/12/13 02:25:13;;;;;;;14.43;11.37;;;12.20;99.90;;;;;;5021740;28;20209;-25
2021/12/13 02:27:45;;;;;;;14.60;11.17;;;12.20;99.90;;;;;;5020094;28;20611;-25
2021/12/13 02:30:31;;;;;;;17.70;12.13;;;12.20;99.90;;;;;;5012298;28;20236;-24
2021/12/13 02:33:02;;;;;;;14.80;11.70;;;12.20;99.90;;;;;;5014012;28;20212;-25
2021/12/13 02:35:34;;;;;;;14.13;11.27;;;12.20;99.90;;;;;;5014259;28;20201;-24
2021/12/13 02:38:04;;;;;;;14.40;11.47;;;12.20;99.90;;;;;;5021035;28;20204;-25
2021/12/13 02:40:32;;;;;;;14.00;10.83;;;12.20;99.90;;;;;;5013272;28;20200;-25
2021/12/13 02:42:59;;;;;;;16.27;11.43;;;12.20;99.90;;;;;;5009761;28;20207;-25
2021/12/13 02:45:42;;;;;;;14.93;11.90;;;12.10;99.90;;;;;;5009978;28;20205;-25
2021/12/13 02:48:18;;;;;;;14.13;11.40;;;12.20;99.90;;;;;;5018872;28;20811;-25
2021/12/13 02:51:01;;;;;;;16.17;11.20;;;12.10;99.90;;;;;;5026722;28;20236;-25
2021/12/13 02:53:50;;;;;;;15.63;11.07;;;12.20;99.90;;;;;;5024986;28;20656;-25
2021/12/13 02:56:21;;;;;;;12.77;10.37;;;12.10;99.90;;;;;;5026441;28;20207;-25
2021/12/13 02:58:50;;;;;;;13.50;10.50;;;12.10;99.90;;;;;;5000271;28;20262;-25
2021/12/13 03:01:28;;;;;;;14.47;10.97;;;12.10;99.90;;;;;;5025766;28;20229;-24
2021/12/13 03:04:03;;;;;;;15.10;11.30;;;12.10;99.90;;;;;;5019713;28;20551;-25
2021/12/13 03:06:35;;;;;;;14.30;11.23;;;12.10;99.90;;;;;;5024852;28;20212;-24
2021/12/13 03:09:24;;;;;;;13.87;10.30;;;12.10;99.90;;;;;;5025308;28;20841;-25
2021/12/13 03:11:56;;;;;;;12.50;10.03;;;12.10;99.90;;;;;;5028356;28;20223;-25
2021/12/13 03:14:30;;;;;;;12.47;10.63;;;12.10;99.90;;;;;;5012853;28;20201;-24
2021/12/13 03:17:05;;;;;;;13.97;10.67;;;12.10;99.90;;;;;;5009182;28;20210;-24
2021/12/13 03:19:41;;;;;;;13.57;10.70;;;12.10;99.90;;;;;;5013162;28;20212;-25
2021/12/13 03:22:29;;;;;;;14.13;10.77;;;12.10;99.90;;;;;;5015701;28;20216;-24
2021/12/13 03:25:11;;;;;;;12.53;10.37;;;12.10;99.90;;;;;;5017069;28;20376;-25
2021/12/13 03:28:08;;;;;;;13.63;10.70;;;12.10;99.90;;;;;;5022562;28;20687;-25
2021/12/13 03:30:40;;;;;;;12.90;9.83;;;12.20;99.90;;;;;;5015197;28;20565;-25
2021/12/13 03:33:14;;;;;;;11.97;10.10;;;12.10;99.90;;;;;;5023005;28;20212;-24
2021/12/13 03:35:41;;;;;;;13.23;10.23;;;12.10;99.90;;;;;;5015583;28;20210;-25
2021/12/13 03:38:16;;;;;;;12.43;9.80;;;12.10;99.90;;;;;;5007785;28;20254;-25
2021/12/13 03:40:45;;;;;;;13.33;9.77;;;12.10;99.90;;;;;;5027847;28;20210;-25
2021/12/13 03:43:23;;;;;;;13.13;9.83;;;12.10;99.90;;;;;;5020838;28;20194;-24
2021/12/13 03:45:55;;;;;;;11.73;9.00;;;12.10;99.90;;;;;;5024391;28;20251;-25
2021/12/13 03:48:27;;;;;;;12.17;10.13;;;12.10;99.90;;;;;;5024891;28;20221;-25
2021/12/13 03:51:01;;;;;;;12.07;9.40;;;12.10;99.90;;;;;;5018973;28;20318;-24
2021/12/13 03:53:31;;;;;;;14.33;10.27;;;12.10;99.90;;;;;;5025112;28;20590;-25
2021/12/13 03:56:10;;;;;;;12.03;9.83;;;12.20;99.90;;;;;;5020109;28;20209;-25
2021/12/13 03:58:43;;;;;;;12.30;8.87;;;12.10;99.90;;;;;;5026762;28;20205;-25
2021/12/13 04:01:21;;;;;;;12.90;10.07;;;12.20;99.90;;;;;;5025551;28;20208;-25
2021/12/13 04:03:53;;;;;;;11.23;9.20;;;12.20;99.90;;;;;;5021434;28;20218;-25
2021/12/13 04:06:21;;;;;;;13.30;10.30;;;12.20;99.90;;;;;;5010164;28;20678;-24
2021/12/13 04:08:54;;;;;;;13.40;9.40;;;12.20;99.90;;;;;;5014228;28;20695;-25
2021/12/13 04:11:24;;;;;;;12.17;9.13;;;12.20;99.90;;;;;;5015376;28;20517;-24
2021/12/13 04:14:08;;;;;;;11.43;9.07;;;12.20;99.90;;;;;;5022827;28;20220;-25
2021/12/13 04:16:50;;;;;;;11.60;9.03;;;12.20;99.90;;;;;;5019278;28;20200;-24
2021/12/13 04:19:21;;;;;;;11.83;8.67;;;12.20;99.90;;;;;;5015553;28;20659;-24
2021/12/13 04:21:59;;;;;;;10.40;8.23;;;12.20;99.90;;;;;;5022372;28;20219;-24
2021/12/13 04:24:39;;;;;;;10.20;8.33;;;12.20;99.90;;;;;;5024997;28;20266;-24
2021/12/13 04:27:22;;;;;;;10.90;8.93;;;12.20;99.90;;;;;;5007559;28;20201;-24
2021/12/13 04:30:01;;;;;;;10.47;8.57;;;12.20;99.90;;;;;;5023558;28;20233;-24
2021/12/13 04:32:35;;;;;;;11.00;9.17;;;12.20;99.90;;;;;;5024081;28;20215;-25
2021/12/13 04:35:07;;;;;;;12.33;9.50;;;12.10;99.90;;;;;;5024924;28;20216;-25
2021/12/13 04:37:49;;;;;;;9.87;7.93;;;12.20;99.90;;;;;;5019564;28;20213;-24
2021/12/13 04:40:22;;;;;;;10.47;8.50;;;12.20;99.90;;;;;;5021424;28;20208;-24
2021/12/13 04:43:11;;;;;;;10.27;8.40;;;12.10;99.90;;;;;;5023186;28;20269;-24
2021/12/13 04:45:46;;;;;;;9.27;7.50;;;12.20;99.90;;;;;;5019678;28;20212;-25
2021/12/13 04:48:13;;;;;;;11.00;8.60;;;12.10;99.90;;;;;;5025728;28;20220;-25
2021/12/13 04:51:01;;;;;;;9.30;7.77;;;12.20;99.90;;;;;;5022667;28;20547;-24
2021/12/13 04:53:39;;;;;;;9.13;7.20;;;12.10;99.90;;;;;;5013709;28;20292;-24
2021/12/13 04:56:13;;;;;;;10.77;8.30;;;12.10;99.90;;;;;;5020530;28;20213;-24
2021/12/13 04:58:47;;;;;;;8.97;7.70;;;12.10;99.90;;;;;;5025459;28;20209;-24
2021/12/13 05:01:18;;;;;;;9.97;7.77;;;12.10;99.90;;;;;;5013871;28;20557;-24
2021/12/13 05:03:50;;;;;;;10.40;8.23;;;12.10;99.90;;;;;;5013712;28;20209;-24
2021/12/13 05:06:27;;;;;;;9.97;8.57;;;12.10;99.90;;;;;;5026421;28;20665;-24
2021/12/13 05:08:58;;;;;;;10.63;7.83;;;12.20;99.90;;;;;;5018556;28;20224;-24
2021/12/13 05:11:52;;;;;;;10.23;8.33;;;12.20;99.90;;;;;;5028266;28;20236;-24
2021/12/13 05:14:54;;;;;;;9.23;7.50;;;12.20;99.90;;;;;;5020271;28;20205;-24
2021/12/13 05:17:43;;;;;;;9.43;7.97;;;12.10;99.90;;;;;;5011164;28;20212;-24
2021/12/13 05:20:24;;;;;;;9.37;7.67;;;12.10;99.90;;;;;;5029043;28;20299;-22
2021/12/13 05:22:56;;;;;;;10.43;8.17;;;12.10;99.90;;;;;;5017792;28;20220;-22
2021/12/13 05:25:34;;;;;;;10.87;8.13;;;12.10;99.90;;;;;;5012033;28;20236;-23
2021/12/13 05:28:44;;;;;;;10.63;8.27;;;12.10;99.90;;;;;;5022046;28;20201;-22
2021/12/13 05:31:18;;;;;;;10.73;8.40;;;12.10;99.90;;;;;;4991583;28;20295;-24
2021/12/13 05:33:51;;;;;;;9.47;7.70;;;12.10;99.90;;;;;;4998299;28;20828;-24
2021/12/13 05:36:31;;;;;;;10.40;8.47;;;12.10;99.90;;;;;;5011212;28;20210;-24
2021/12/13 05:39:15;;;;;;;11.80;8.53;;;12.10;99.90;;;;;;5009581;28;20252;-22
2021/12/13 05:41:57;;;;;;;9.23;7.90;;;12.10;99.90;;;;;;5023363;28;20217;-22
2021/12/13 05:44:33;;;;;;;12.10;8.33;;;12.10;99.90;;;;;;5027992;28;20228;-22
2021/12/13 05:47:06;;;;;;;9.13;7.53;;;12.10;99.90;;;;;;5026991;28;20262;-22
2021/12/13 05:49:44;;;;;;;9.73;7.77;;;12.10;99.90;;;;;;5017531;28;20691;-22
2021/12/13 05:52:16;;;;;;;10.03;8.53;;;12.10;99.90;;;;;;5023756;28;20243;-22
2021/12/13 05:54:56;;;;;;;9.50;7.93;;;12.10;99.90;;;;;;5028952;28;20200;-23
2021/12/13 05:57:32;;;;;;;8.97;7.43;;;12.10;99.90;;;;;;5010606;28;20204;-22
2021/12/13 06:00:19;;;;;;;9.87;7.83;;;12.10;99.90;;;;;;5020737;28;20615;-22
2021/12/13 06:03:07;;;;;;;9.17;7.80;;;12.10;99.90;;;;;;5027675;28;20291;-22
2021/12/13 06:05:52;;;;;;;8.90;7.57;;;12.10;99.90;;;;;;5018829;28;20220;-22
2021/12/13 06:08:26;;;;;;;11.10;7.77;;;12.10;99.90;;;;;;5015347;28;20197;-22
2021/12/13 06:11:00;;;;;;;8.67;7.63;;;12.10;99.90;;;;;;5026258;28;20247;-22
2021/12/13 06:13:42;;;;;;;8.40;7.50;;;12.10;99.90;;;;;;5023224;28;20572;-22
2021/12/13 06:17:03;;;;;;;9.30;7.73;;;12.10;99.90;;;;;;5017828;28;20255;-22
2021/12/13 06:19:37;;;;;;;8.73;7.40;;;12.10;99.90;;;;;;5022983;28;20255;-22
2021/12/13 06:22:19;;;;;;;9.03;7.60;;;12.10;99.90;;;;;;5028067;28;20238;-24
2021/12/13 06:24:55;;;;;;;9.00;7.10;;;12.10;99.90;;;;;;5023839;28;20209;-24
2021/12/13 06:27:29;;;;;;;8.87;7.53;;;12.10;99.90;;;;;;5024484;28;20216;-24
2021/12/13 06:29:59;;;;;;;8.70;7.13;;;12.10;99.90;;;;;;5026746;28;20220;-24
2021/12/13 06:32:49;;;;;;;9.03;6.83;;;12.10;99.90;;;;;;5023888;28;20308;-24
2021/12/13 06:35:49;;;;;;;9.47;7.23;;;12.10;99.90;;;;;;5018633;28;20568;-24
2021/12/13 06:38:18;;;;;;;8.80;6.97;;;12.10;99.90;;;;;;5015210;28;20204;-25
2021/12/13 06:40:57;;;;;;;7.60;6.80;;;12.10;99.90;;;;;;5022987;28;20715;-24
2021/12/13 06:43:36;;;;;;;8.07;6.90;;;12.10;99.90;;;;;;5026465;28;20262;-24
2021/12/13 06:46:31;;;;;;;8.00;6.77;;;12.10;99.90;;;;;;5016447;28;20208;-24
2021/12/13 06:49:05;;;;;;;9.33;6.63;;;12.10;99.90;;;;;;5019703;28;20244;-24
2021/12/13 06:51:47;;;;;;;8.53;6.97;;;12.10;99.90;;;;;;5017473;28;20335;-24
2021/12/13 06:54:39;;;;;;;7.33;6.20;;;12.10;99.90;;;;;;5012521;28;20241;-24
2021/12/13 06:57:09;;;;;;;9.30;6.67;;;12.10;99.90;;;;;;5012258;28;20295;-24
2021/12/13 06:59:55;;;;;;;7.40;6.03;;;12.10;99.90;;;;;;5022068;28;20213;-24
2021/12/13 07:02:35;;;;;;;7.07;5.87;;;12.10;99.90;;;;;;5027446;28;20205;-24
2021/12/13 07:05:03;;;;;;;8.03;5.97;;;12.10;99.90;;;;;;5015372;28;20217;-24
2021/12/13 07:08:00;;;;;;;7.80;5.80;;;12.10;99.90;;;;;;5009217;28;20205;-24
2021/12/13 07:10:56;;;;;;;9.67;6.80;;;12.10;99.90;;;;;;5027941;28;20227;-24
2021/12/13 07:13:25;;;;;;;8.30;5.90;;;12.10;99.90;;;;;;5024526;28;20205;-24
2021/12/13 07:16:16;;;;;;;7.67;6.33;;;12.10;99.90;;;;;;5026381;28;20216;-24
2021/12/13 07:18:52;;;;;;;9.07;6.00;;;12.10;99.90;;;;;;5025943;28;20536;-24
2021/12/13 07:21:27;;;;;;;7.23;6.00;;;12.10;99.90;;;;;;5016102;28;20679;-24
2021/12/13 07:24:14;;;;;;;7.07;5.53;;;12.10;99.90;;;;;;5011802;28;20211;-25
2021/12/13 07:26:52;;;;;;;7.53;6.20;;;12.10;99.90;;;;;;5017325;28;20209;-24
2021/12/13 07:29:47;;;;;;;8.03;6.00;;;12.10;99.90;;;;;;5009261;28;20550;-24
2021/12/13 07:32:34;;;;;;;7.93;6.40;;;12.10;99.90;;;;;;5008874;28;20222;-24
2021/12/13 07:35:33;;;;;;;8.67;6.07;;;12.00;99.90;;;;;;5008820;28;20550;-26
2021/12/13 07:38:08;;;;;;;7.40;5.90;;;12.00;99.90;;;;;;5011275;28;20251;-24
2021/12/13 07:40:45;;;;;;;10.10;6.50;;;12.00;99.90;;;;;;5011358;28;20600;-24
2021/12/13 07:43:39;;;;;;;8.07;6.37;;;12.00;99.90;;;;;;4998918;28;20209;-24
2021/12/13 07:46:18;;;;;;;7.40;6.00;;;12.00;99.90;;;;;;5009144;28;20204;-24
2021/12/13 07:48:45;;;;;;;6.60;5.90;;;12.00;99.90;;;;;;5011027;28;20654;-24
2021/12/13 07:51:31;;;;;;;8.17;6.47;;;12.00;99.90;;;;;;5015064;28;20331;-24
2021/12/13 07:53:58;;;;;;;7.73;6.07;;;12.00;99.90;;;;;;5015987;28;20700;-24
2021/12/13 07:56:40;;;;;;;6.90;6.17;;;12.00;99.90;;;;;;5008371;28;20263;-24
2021/12/13 07:59:31;;;;;;;6.13;5.53;;;12.00;99.90;;;;;;5010627;28;20216;-24
2021/12/13 08:02:15;;;;;;;7.20;5.43;;;12.00;99.90;;;;;;5018087;28;20214;-24
2021/12/13 08:04:52;;;;;;;7.07;5.63;;;12.00;99.90;;;;;;5008028;28;20251;-24
2021/12/13 08:07:26;;;;;;;5.70;5.10;;;12.00;99.90;;;;;;5005359;28;20209;-24
2021/12/13 08:10:28;;;;;;;6.83;5.60;;;12.00;99.90;;;;;;5012698;28;20229;-24
2021/12/13 08:13:11;;;;;;;9.00;6.23;;;12.00;99.90;;;;;;5008871;28;20626;-24
2021/12/13 08:15:43;;;;;;;5.73;5.00;;;12.00;99.90;;;;;;5026338;28;20212;-24
2021/12/13 08:18:33;;;;;;;7.17;5.40;;;12.00;99.90;;;;;;5019453;28;20198;-24
2021/12/13 08:21:24;;;;;;;6.77;5.27;;;12.00;99.90;;;;;;5023116;28;20209;-24
2021/12/13 08:23:58;;;;;;;6.60;5.00;;;12.00;99.90;;;;;;5007522;28;20205;-22
2021/12/13 08:26:43;;;;;;;6.07;4.47;;;12.00;99.90;;;;;;5019977;28;20216;-22
2021/12/13 08:29:27;;;;;;;6.27;4.70;;;12.00;99.90;;;;;;5013298;28;20284;-22
2021/12/13 08:31:59;;;;;;;5.33;4.70;;;12.00;99.90;;;;;;5016231;28;20201;-22
2021/12/13 08:34:31;;;;;;;5.83;4.60;;;12.00;99.90;;;;;;5007682;28;20610;-22
2021/12/13 08:36:59;;;;;;;6.00;4.30;;;12.00;99.90;;;;;;5006365;28;20210;-22
2021/12/13 08:39:34;;;;;;;4.67;4.10;;;12.00;99.90;;;;;;5014003;28;20237;-22
2021/12/13 08:42:11;;;;;;;4.83;3.97;;;12.00;99.90;;;;;;5011126;28;20251;-22
2021/12/13 08:45:04;;;;;;;4.43;4.03;;;12.00;99.90;;;;;;5011652;28;20204;-22
2021/12/13 08:47:42;;;;;;;4.73;4.03;;;12.00;99.90;;;;;;5021063;28;20255;-22
2021/12/13 08:50:17;;;;;;;4.80;3.83;;;12.00;99.90;;;;;;5014284;28;20298;-22
2021/12/13 08:52:47;;;;;;;4.63;3.70;;;12.00;99.90;;;;;;5012206;28;20317;-22
2021/12/13 08:55:21;;;;;;;4.00;3.60;;;12.00;99.90;;;;;;5018157;28;20193;-24
2021/12/13 08:57:58;;;;;;;4.10;3.50;;;12.00;99.90;;;;;;5020678;28;20207;-24
2021/12/13 09:00:32;;;;;;;4.43;3.60;;;12.00;99.90;;;;;;5029638;28;20227;-24
2021/12/13 09:03:22;;;;;;;5.03;3.30;;;12.00;99.90;;;;;;5031333;28;20703;-24
2021/12/13 09:06:18;;;;;;;3.43;3.00;;;12.00;99.90;;;;;;5011890;28;20213;-22
2021/12/13 09:08:51;;;;;;;3.93;3.30;;;12.00;99.90;;;;;;5010010;28;20214;-22
2021/12/13 09:11:30;;;;;;;4.50;3.60;;;12.00;99.90;;;;;;5011233;28;20251;-22
2021/12/13 09:14:27;;;;;;;4.37;3.30;;;12.00;99.90;;;;;;5010050;28;20194;-22
2021/12/13 09:17:21;;;;;;;4.60;3.27;;;12.10;99.90;;;;;;5016366;28;20218;-22
2021/12/13 09:19:52;;;;;;;4.97;3.20;;;12.00;99.90;;;;;;5011223;28;20209;-22
2021/12/13 09:22:25;;;;;;;4.43;3.37;;;12.00;99.90;;;;;;5009950;28;20209;-22
2021/12/13 09:25:06;;;;;;;4.87;3.50;;;12.00;99.90;;;;;;5016851;28;20260;-23
2021/12/13 09:27:41;;;;;;;4.60;3.40;;;12.10;99.90;;;;;;5026142;28;20224;-22
2021/12/13 09:30:12;;;;;;;5.73;3.53;;;12.10;99.90;;;;;;5015979;28;20272;-23
2021/12/13 09:33:00;;;;;;;3.97;3.10;;;12.10;99.90;;;;;;5010980;28;20209;-24
2021/12/13 09:35:33;;;;;;;3.77;2.87;;;12.10;99.90;;;;;;5010862;28;20347;-24
2021/12/13 09:38:22;;;;;;;3.13;2.57;;;12.10;99.90;;;;;;5008088;28;20210;-22
2021/12/13 09:41:21;;;;;;;3.73;2.83;;;12.10;99.90;;;;;;5026951;28;20304;-22
2021/12/13 09:44:04;;;;;;;3.10;2.80;;;12.10;99.90;;;;;;5009361;28;20214;-23
2021/12/13 09:46:37;;;;;;;6.63;3.20;;;12.10;99.90;;;;;;5011407;28;20715;-22
2021/12/13 09:49:11;;;;;;;3.47;2.80;;;12.10;99.90;;;;;;5013605;28;20612;-22
2021/12/13 09:51:50;;;;;;;3.13;2.73;;;12.10;99.90;;;;;;5012207;28;20345;-23
2021/12/13 09:54:22;;;;;;;3.13;2.80;;;12.20;99.90;;;;;;5010874;28;20214;-24
2021/12/13 09:56:53;;;;;;;3.20;2.90;;;12.20;99.90;;;;;;5010794;28;20216;-24
2021/12/13 09:59:31;;;;;;;4.13;2.53;;;12.20;99.90;;;;;;5024303;28;20569;-24
2021/12/13 10:02:04;;;;;;;4.30;2.60;;;12.20;99.90;;;;;;5027533;28;20468;-24
2021/12/13 10:04:38;;;;;;;3.80;2.93;;;12.20;99.90;;;;;;5020295;28;20218;-25
2021/12/13 10:07:19;;;;;;;3.53;2.60;;;12.20;99.90;;;;;;5008991;28;20609;-22
2021/12/13 10:09:55;;;;;;;3.50;2.30;;;12.20;99.90;;;;;;5014079;28;20676;-22
2021/12/13 10:12:24;;;;;;;6.53;3.37;;;12.20;99.90;;;;;;5025427;28;20271;-22
2021/12/13 10:15:23;;;;;;;4.20;3.00;;;12.20;99.90;;;;;;5009565;28;20251;-23
2021/12/13 10:17:57;;;;;;;3.20;2.73;;;12.30;99.90;;;;;;5017122;28;20964;-22
2021/12/13 10:20:32;;;;;;;3.43;2.50;;;12.30;99.90;;;;;;5024745;28;20208;-22
2021/12/13 10:23:00;;;;;;;3.10;2.60;;;12.30;99.90;;;;;;5011318;28;20248;-22
2021/12/13 10:25:32;;;;;;;2.60;2.40;;;12.30;99.90;;;;;;5010395;28;20233;-22
2021/12/13 10:28:09;;;;;;;4.20;2.60;;;12.30;99.90;;;;;;5020994;28;20675;-22
2021/12/13 10:30:45;;;;;;;4.50;2.33;;;12.30;99.90;;;;;;5022804;28;20638;-22
2021/12/13 10:33:19;;;;;;;3.27;2.97;;;12.30;99.90;;;;;;5009464;28;20197;-22
2021/12/13 10:35:47;;;;;;;3.67;2.40;;;12.30;99.90;;;;;;5010558;28;20283;-23
2021/12/13 10:38:22;;;;;;;3.00;2.23;;;12.40;99.90;;;;;;5015309;28;20256;-22
2021/12/13 10:40:56;;;;;;;4.30;2.77;;;12.40;99.90;;;;;;5028964;28;20205;-22
2021/12/13 10:43:32;;;;;;;3.50;2.53;;;12.40;99.90;;;;;;5012285;28;20655;-23
2021/12/13 10:46:07;;;;;;;2.97;2.40;;;12.40;99.90;;;;;;5010047;28;20217;-22
2021/12/13 10:48:42;;;;;;;3.77;2.30;;;12.40;99.90;;;;;;5018682;28;20788;-22
2021/12/13 10:51:14;;;;;;;5.03;2.73;;;12.40;99.90;;;;;;5026071;28;20303;-23
2021/12/13 10:53:43;;;;;;;2.77;2.30;;;12.40;99.90;;;;;;5018572;28;20271;-23
2021/12/13 10:56:19;;;;;;;3.27;2.23;;;12.40;99.90;;;;;;4982150;28;20738;-23
2021/12/13 10:58:52;;;;;;;5.23;2.43;;;12.50;99.90;;;;;;5011927;28;20220;-22
2021/12/13 11:01:29;;;;;;;5.63;2.60;;;12.50;99.90;;;;;;5016848;28;20211;-23
2021/12/13 11:04:01;;;;;;;2.53;2.17;;;12.50;99.90;;;;;;5022696;28;20628;-22
2021/12/13 11:06:29;;;;;;;4.27;2.70;;;12.50;99.90;;;;;;5019602;28;20194;-23
2021/12/13 11:08:57;;;;;;;3.97;2.50;;;12.50;99.90;;;;;;5025813;28;20228;-23
2021/12/13 11:11:38;;;;;;;4.30;2.33;;;12.50;99.90;;;;;;5009058;28;20871;-22
2021/12/13 11:14:09;;;;;;;2.90;2.40;;;12.50;99.90;;;;;;5008947;28;20222;-22
2021/12/13 11:16:41;;;;;;;3.97;2.50;;;12.50;99.90;;;;;;5021072;28;20201;-22
2021/12/13 11:19:12;;;;;;;4.10;3.00;;;12.60;99.90;;;;;;5013213;28;20197;-22
2021/12/13 11:21:45;;;;;;;12.63;4.57;;;12.60;99.90;;;;;;5020190;28;20220;-22
2021/12/13 11:24:18;;;;;;;10.93;3.63;;;12.60;99.90;;;;;;5008548;28;20244;-22
2021/12/13 11:27:04;;;;;;;5.20;2.73;;;12.60;99.90;;;;;;5010593;28;20205;-22
2021/12/13 11:29:32;;;;;;;4.00;2.30;;;12.60;99.90;;;;;;5010369;28;20224;-25
2021/12/13 11:32:06;;;;;;;3.07;2.23;;;12.60;99.90;;;;;;5012225;28;20256;-24
2021/12/13 11:35:04;;;;;;;3.23;2.50;;;12.60;99.90;;;;;;5015916;28;20229;-25
2021/12/13 11:37:51;;;;;;;2.53;2.33;;;12.60;99.90;;;;;;5007648;28;20198;-24
2021/12/13 11:40:57;;;;;;;3.03;2.40;;;12.60;99.90;;;;;;5013545;28;20311;-24
2021/12/13 11:43:43;;;;;;;3.90;2.50;;;12.60;99.90;;;;;;5015492;28;20204;-24
2021/12/13 11:46:41;;;;;;;2.97;2.43;;;12.60;99.90;;;;;;5009343;28;20240;-24
2021/12/13 11:49:31;;;;;;;4.17;2.20;;;12.60;99.90;;;;;;5015146;28;20217;-24
2021/12/13 11:52:36;;;;;;;3.17;2.40;;;12.70;99.90;;;;;;5023562;28;20314;-22
2021/12/13 11:55:35;;;;;;;3.43;2.90;;;12.70;99.90;;;;;;4993557;28;20217;-23
2021/12/13 11:58:34;;;;;;;4.00;2.70;;;12.70;99.90;;;;;;5018459;28;20227;-23
2021/12/13 12:01:16;;;;;;;4.27;2.67;;;12.70;99.90;;;;;;5018891;28;20533;-23
2021/12/13 12:03:46;;;;;;;5.13;2.50;;;12.70;99.90;;;;;;5020887;28;20220;-23
2021/12/13 12:06:44;;;;;;;4.60;2.70;;;12.70;99.90;;;;;;5013832;28;20217;-23
2021/12/13 12:09:42;;;;;;;4.63;2.40;;;12.80;99.90;;;;;;5023101;28;20212;-23
2021/12/13 12:12:18;;;;;;;3.93;2.40;;;12.80;99.90;;;;;;5012532;28;20586;-23
2021/12/13 12:15:00;;;;;;;4.37;2.50;;;12.80;99.90;;;;;;5034458;28;20208;-23
2021/12/13 12:17:31;;;;;;;4.73;2.80;;;12.80;99.90;;;;;;5022325;28;20227;-23
2021/12/13 12:20:03;;;;;;;4.40;2.37;;;12.80;99.90;;;;;;5015265;28;20223;-23
2021/12/13 12:22:51;;;;;;;4.50;2.40;;;12.80;99.90;;;;;;5015514;28;20213;-23
2021/12/13 12:25:27;;;;;;;4.73;2.53;;;12.80;99.90;;;;;;5006772;28;20271;-23
2021/12/13 12:28:08;;;;;;;3.63;2.50;;;12.80;99.90;;;;;;5021423;28;20295;-23
2021/12/13 12:30:46;;;;;;;4.83;2.60;;;12.80;99.90;;;;;;5022174;28;20298;-23
2021/12/13 12:33:27;;;;;;;5.70;2.60;;;12.80;99.90;;;;;;5021057;28;20192;-23
2021/12/13 12:35:56;;;;;;;4.63;2.30;;;12.80;99.90;;;;;;5010189;28;20236;-23
2021/12/13 12:38:37;;;;;;;5.53;2.70;;;12.80;99.90;;;;;;5018607;28;20223;-23
2021/12/13 12:41:27;;;;;;;4.93;2.90;;;12.80;99.90;;;;;;5017687;28;20227;-23
2021/12/13 12:43:57;;;;;;;6.00;2.93;;;12.80;99.90;;;;;;5020061;28;20224;-23
2021/12/13 12:46:25;;;;;;;4.37;2.40;;;12.80;99.90;;;;;;5014580;28;20209;-23
2021/12/13 12:48:59;;;;;;;4.43;2.53;;;12.80;99.90;;;;;;5020710;28;20606;-23
2021/12/13 12:51:32;;;;;;;2.80;2.23;;;12.90;99.90;;;;;;5009716;28;20237;-23
2021/12/13 12:54:08;;;;;;;3.77;2.37;;;12.90;99.90;;;;;;5009979;28;20294;-23
2021/12/13 12:56:57;;;;;;;2.87;2.20;;;12.90;99.90;;;;;;5016152;28;20197;-22
2021/12/13 12:59:31;;;;;;;6.57;2.53;;;12.90;99.90;;;;;;5008212;28;20237;-23
2021/12/13 13:02:04;;;;;;;4.87;2.47;;;12.80;99.90;;;;;;5022889;28;20604;-23
2021/12/13 13:04:33;;;;;;;4.67;2.43;;;12.80;99.90;;;;;;5008849;28;20629;-23
2021/12/13 13:07:01;;;;;;;5.03;2.50;;;12.90;99.90;;;;;;5007650;28;20263;-23
2021/12/13 13:09:37;;;;;;;5.10;2.47;;;12.90;99.90;;;;;;5016205;28;20632;-23
2021/12/13 13:12:06;;;;;;;3.80;2.50;;;12.90;99.90;;;;;;5014233;28;20212;-23
2021/12/13 13:14:43;;;;;;;4.40;2.30;;;12.90;99.90;;;;;;5026867;28;20231;-23
2021/12/13 13:17:10;;;;;;;3.47;2.20;;;12.90;99.90;;;;;;5008311;28;20216;-23
2021/12/13 13:19:43;;;;;;;4.43;2.53;;;12.90;99.90;;;;;;5027011;28;20312;-23
2021/12/13 13:22:29;;;;;;;10.03;2.90;;;12.90;99.90;;;;;;5013874;28;20296;-23
2021/12/13 13:25:23;;;;;;;5.73;2.40;;;12.90;99.90;;;;;;5012767;28;20229;-23
2021/12/13 13:27:51;;;;;;;7.47;2.93;;;12.90;99.90;;;;;;5010949;28;20735;-23
2021/12/13 13:30:30;;;;;;;10.30;3.43;;;12.90;99.90;;;;;;5010442;28;20214;-23
2021/12/13 13:32:58;;;;;;;5.67;2.77;;;12.90;99.90;;;;;;5012986;28;20205;-23
2021/12/13 13:35:27;;;;;;;3.53;2.13;;;12.90;99.90;;;;;;5013063;28;20296;-23
2021/12/13 13:38:13;;;;;;;3.77;2.00;;;12.90;99.90;;;;;;5008954;28;20327;-23
2021/12/13 13:40:41;;;;;;;3.20;2.03;;;12.90;99.90;;;;;;5021386;28;20580;-23
2021/12/13 13:43:12;;;;;;;4.27;2.03;;;12.90;99.90;;;;;;5012534;28;20648;-23